createdAt,value
2018-12-24T00:01:38.799Z,2.30
2018-12-24T00:06:40.799Z,2.10
2018-12-24T00:11:42.790Z,2.22
2018-12-24T00:16:45.075Z,2.35
2018-12-24T00:21:48.318Z,2.25
2018-12-24T00:26:50.361Z,2.55
2018-12-24T00:31:52.318Z,2.40
2018-12-24T00:36:54.575Z,2.12
2018-12-24T00:41:59.156Z,2.47
2018-12-24T00:47:01.186Z,2.42
2018-12-24T00:52:03.526Z,1.70
2018-12-24T00:57:05.488Z,2.30
2018-12-24T01:02:07.476Z,1.80
2018-12-24T01:07:09.624Z,1.80
2018-12-24T01:12:14.206Z,1.65
2018-12-24T01:17:16.386Z,1.40
2018-12-24T01:22:18.420Z,1.42
2018-12-24T01:27:20.736Z,1.35
2018-12-24T01:32:22.847Z,1.20
2018-12-24T01:37:25.058Z,1.32
2018-12-24T01:42:33.313Z,1.50
2018-12-24T01:47:31.688Z,1.40
2018-12-24T01:52:33.695Z,1.10
2018-12-24T01:57:35.920Z,1.40
2018-12-24T02:02:37.918Z,1.35
2018-12-24T02:07:39.921Z,1.40
2018-12-24T02:12:44.160Z,1.30
2018-12-24T02:17:46.139Z,1.10
2018-12-24T02:22:48.425Z,1.10
2018-12-24T02:27:50.402Z,1.05
2018-12-24T02:32:52.365Z,1.00
2018-12-24T02:37:54.431Z,1.10
2018-12-24T02:42:56.408Z,1.30
2018-12-24T02:47:58.470Z,1.20
2018-12-24T02:53:00.528Z,1.02
2018-12-24T02:58:02.521Z,1.00
2018-12-24T03:03:04.547Z,1.00
2018-12-24T03:08:06.534Z,1.10
2018-12-24T03:13:08.770Z,1.00
2018-12-24T03:18:10.763Z,1.10
2018-12-24T03:23:12.776Z,1.10
2018-12-24T03:28:15.131Z,1.00
2018-12-24T03:33:17.298Z,1.00
2018-12-24T03:38:19.678Z,1.00
2018-12-24T03:43:21.726Z,0.90
2018-12-24T03:48:23.793Z,1.10
2018-12-24T03:53:25.803Z,1.15
2018-12-24T03:58:29.459Z,1.00
2018-12-24T04:03:31.778Z,1.10
2018-12-24T04:08:33.943Z,1.20
2018-12-24T04:13:35.958Z,1.10
2018-12-24T04:18:40.261Z,1.20
2018-12-24T04:23:42.268Z,1.10
2018-12-24T04:28:44.268Z,1.30
2018-12-24T04:33:46.278Z,1.07
2018-12-24T04:38:48.369Z,1.40
2018-12-24T04:43:50.721Z,1.10
2018-12-24T04:48:52.705Z,1.30
2018-12-24T04:53:54.712Z,1.40
2018-12-24T04:58:57.006Z,1.50
2018-12-24T05:04:01.113Z,1.32
2018-12-24T05:09:05.312Z,1.40
2018-12-24T05:14:07.415Z,1.75
2018-12-24T05:19:09.502Z,1.50
2018-12-24T05:24:11.574Z,1.30
2018-12-24T05:29:13.672Z,1.52
2018-12-24T05:34:15.662Z,1.50
2018-12-24T05:39:17.892Z,1.95
2018-12-24T05:44:19.926Z,1.47
2018-12-24T05:49:22.013Z,1.40
2018-12-24T05:54:24.033Z,1.40
2018-12-24T05:59:26.021Z,1.60
2018-12-24T06:04:28.030Z,1.40
2018-12-24T06:09:30.384Z,1.60
2018-12-24T06:14:32.535Z,1.42
2018-12-24T06:19:34.671Z,1.60
2018-12-24T06:24:36.822Z,1.70
2018-12-24T06:29:38.817Z,1.62
2018-12-24T06:34:40.896Z,1.60
2018-12-24T06:39:42.981Z,1.75
2018-12-24T06:44:44.981Z,1.77
2018-12-24T06:49:47.024Z,1.92
2018-12-24T06:54:49.162Z,1.70
2018-12-24T06:59:51.359Z,1.50
2018-12-24T07:04:53.750Z,1.80
2018-12-24T07:09:55.839Z,1.70
2018-12-24T07:14:57.823Z,1.90
2018-12-24T07:20:00.099Z,1.67
2018-12-24T07:25:02.068Z,1.75
2018-12-24T07:30:05.432Z,1.52
2018-12-24T07:35:07.410Z,1.90
2018-12-24T07:40:09.450Z,1.40
2018-12-24T07:45:11.455Z,1.65
2018-12-24T07:50:13.662Z,2.00
2018-12-24T07:55:15.765Z,1.62
2018-12-24T08:00:18.015Z,1.80
2018-12-24T08:05:20.033Z,1.60
2018-12-24T08:10:22.070Z,1.77
2018-12-24T08:15:24.331Z,1.90
2018-12-24T08:20:26.289Z,2.02
2018-12-24T08:25:28.303Z,1.70
2018-12-24T08:30:32.097Z,1.82
2018-12-24T08:35:34.131Z,2.05
2018-12-24T08:40:36.219Z,2.40
2018-12-24T08:45:38.261Z,2.00
2018-12-24T08:50:40.411Z,2.10
2018-12-24T08:55:42.453Z,2.05
2018-12-24T09:00:44.421Z,1.90
2018-12-24T09:05:46.466Z,2.00
2018-12-24T09:10:48.526Z,2.25
2018-12-24T09:15:50.534Z,2.17
2018-12-24T09:20:53.039Z,2.30
2018-12-24T09:25:55.208Z,2.30
2018-12-24T09:30:57.217Z,2.30
2018-12-24T09:35:59.250Z,1.95
2018-12-24T09:41:01.378Z,2.55
2018-12-24T09:46:03.402Z,2.30
2018-12-24T09:51:05.780Z,2.50
2018-12-24T09:56:07.839Z,2.83
2018-12-24T10:01:09.858Z,2.27
2018-12-24T10:06:15.987Z,1.98
2018-12-24T10:11:18.080Z,2.37
2018-12-24T10:16:20.120Z,2.55
2018-12-24T10:21:22.144Z,2.27
2018-12-24T10:26:24.160Z,2.50
2018-12-24T10:31:26.243Z,2.70
2018-12-24T10:36:28.433Z,2.70
2018-12-24T10:41:30.556Z,2.70
2018-12-24T10:46:32.530Z,2.67
2018-12-24T10:51:34.552Z,2.65
2018-12-24T10:56:36.609Z,2.35
2018-12-24T11:01:38.652Z,2.95
2018-12-24T11:06:40.940Z,2.92
2018-12-24T11:11:42.938Z,2.60
2018-12-24T11:16:44.990Z,2.77
2018-12-24T11:21:46.995Z,2.92
2018-12-24T11:26:49.142Z,2.80
2018-12-24T11:31:51.440Z,2.58
2018-12-24T11:36:53.462Z,2.80
2018-12-24T11:41:55.526Z,3.33
2018-12-24T11:46:57.503Z,2.37
2018-12-24T11:51:59.585Z,2.92
2018-12-24T11:57:01.648Z,2.70
2018-12-24T12:02:09.994Z,2.65
2018-12-24T12:07:07.681Z,3.02
2018-12-24T12:12:09.744Z,2.75
2018-12-24T12:17:12.262Z,2.70
2018-12-24T12:22:14.330Z,3.30
2018-12-24T12:27:16.343Z,2.67
2018-12-24T12:32:18.746Z,2.50
2018-12-24T12:37:20.890Z,2.77
2018-12-24T12:42:22.933Z,2.90
2018-12-24T12:47:25.037Z,2.67
2018-12-24T12:52:27.544Z,2.52
2018-12-24T12:57:29.561Z,2.70
2018-12-24T13:02:32.671Z,2.22
2018-12-24T13:07:34.920Z,2.50
2018-12-24T13:12:37.259Z,2.55
2018-12-24T13:17:39.642Z,2.58
2018-12-24T13:22:41.665Z,3.10
2018-12-24T13:27:43.724Z,2.67
2018-12-24T13:32:45.997Z,2.52
2018-12-24T13:37:48.036Z,2.50
2018-12-24T13:42:50.233Z,2.20
2018-12-24T13:47:52.367Z,1.85
2018-12-24T13:52:54.591Z,2.33
2018-12-24T13:57:56.608Z,2.17
2018-12-24T14:02:58.637Z,2.20
2018-12-24T14:08:00.700Z,2.60
2018-12-24T14:13:02.707Z,2.15
2018-12-24T14:18:04.727Z,1.90
2018-12-24T14:23:06.875Z,2.27
2018-12-24T14:28:08.926Z,2.58
2018-12-24T14:33:13.966Z,2.17
2018-12-24T14:38:18.059Z,2.30
2018-12-24T14:43:20.116Z,1.92
2018-12-24T14:48:22.244Z,1.92
2018-12-24T14:53:24.533Z,2.10
2018-12-24T14:58:26.540Z,1.95
2018-12-24T15:03:28.620Z,1.92
2018-12-24T15:08:30.748Z,2.00
2018-12-24T15:13:33.038Z,2.17
2018-12-24T15:18:35.375Z,1.90
2018-12-24T15:23:37.476Z,2.22
2018-12-24T15:28:40.266Z,1.92
2018-12-24T15:33:42.396Z,2.00
2018-12-24T15:38:44.413Z,2.40
2018-12-24T15:43:46.909Z,2.07
2018-12-24T15:48:49.201Z,2.05
2018-12-24T15:53:51.287Z,2.30
2018-12-24T15:58:53.394Z,2.50
2018-12-24T16:03:55.615Z,2.30
2018-12-24T16:08:57.891Z,2.47
2018-12-24T16:14:00.296Z,2.75
2018-12-24T16:19:02.550Z,3.22
2018-12-24T16:24:04.726Z,3.40
2018-12-24T16:29:06.707Z,3.22
2018-12-24T16:34:08.793Z,2.77
2018-12-24T16:39:10.836Z,2.60
2018-12-24T16:44:12.897Z,2.70
2018-12-24T16:49:15.247Z,2.92
2018-12-24T16:54:17.465Z,2.95
2018-12-24T16:59:19.437Z,2.90
2018-12-24T17:04:21.493Z,2.98
2018-12-24T17:09:23.540Z,3.02
2018-12-24T17:14:25.631Z,3.37
2018-12-24T17:19:27.702Z,3.62
2018-12-24T17:24:30.075Z,3.42
2018-12-24T17:29:32.105Z,3.60
2018-12-24T17:34:34.722Z,3.02
2018-12-24T17:39:36.786Z,3.58
2018-12-24T17:44:39.201Z,3.85
2018-12-24T17:49:41.250Z,3.75
2018-12-24T17:54:45.562Z,3.45
2018-12-24T17:59:47.657Z,4.05
2018-12-24T18:04:49.649Z,3.80
2018-12-24T18:09:53.883Z,3.75
2018-12-24T18:14:56.008Z,4.12
2018-12-24T18:19:58.335Z,4.42
2018-12-24T18:25:00.321Z,4.40
2018-12-24T18:30:02.521Z,4.35
2018-12-24T18:35:04.590Z,4.20
2018-12-24T18:40:06.648Z,3.90
2018-12-24T18:45:08.685Z,3.42
2018-12-24T18:50:11.185Z,3.75
2018-12-24T18:55:13.221Z,3.90
2018-12-24T19:00:16.279Z,4.15
2018-12-24T19:05:18.445Z,4.30
2018-12-24T19:10:20.482Z,4.20
2018-12-24T19:15:24.400Z,3.95
2018-12-24T19:20:26.431Z,4.67
2018-12-24T19:25:28.475Z,4.55
2018-12-24T19:30:31.186Z,5.28
2018-12-24T19:35:33.325Z,4.92
2018-12-24T19:40:35.336Z,5.17
2018-12-24T19:45:37.461Z,5.47
2018-12-24T19:50:39.719Z,6.10
2018-12-24T19:55:41.760Z,5.53
2018-12-24T20:00:43.768Z,6.42
2018-12-24T20:05:46.116Z,5.55
2018-12-24T20:10:48.474Z,6.22
2018-12-24T20:15:50.474Z,5.45
2018-12-24T20:20:52.510Z,6.10
2018-12-24T20:25:54.615Z,5.97
2018-12-24T20:30:56.691Z,5.45
2018-12-24T20:35:59.014Z,5.78
2018-12-24T20:41:01.081Z,6.10
2018-12-24T20:46:03.160Z,5.50
2018-12-24T20:51:05.148Z,5.67
2018-12-24T20:56:07.185Z,6.70
2018-12-24T21:01:09.476Z,6.35
2018-12-24T21:06:12.330Z,5.80
2018-12-24T21:11:14.555Z,7.45
2018-12-24T21:16:16.709Z,6.50
2018-12-24T21:21:19.015Z,5.40
2018-12-24T21:26:21.389Z,5.28
2018-12-24T21:31:23.517Z,5.42
2018-12-24T21:36:25.801Z,5.80
2018-12-24T21:41:27.940Z,5.47
2018-12-24T21:46:30.716Z,5.87
2018-12-24T21:51:32.750Z,5.33
2018-12-24T21:56:34.862Z,5.80
2018-12-24T22:01:36.919Z,7.33
2018-12-24T22:06:39.079Z,6.33
2018-12-24T22:11:41.320Z,7.00
2018-12-24T22:16:43.349Z,6.75
2018-12-24T22:21:45.517Z,6.92
2018-12-24T22:26:47.723Z,6.15
2018-12-24T22:31:50.264Z,6.42
2018-12-24T22:36:52.293Z,6.33
2018-12-24T22:41:54.346Z,6.25
2018-12-24T22:46:56.535Z,5.22
2018-12-24T22:51:58.632Z,5.42
2018-12-24T22:57:00.680Z,5.40
2018-12-24T23:02:02.916Z,5.00
2018-12-24T23:07:04.995Z,5.03
2018-12-24T23:12:07.044Z,5.30
2018-12-24T23:17:09.168Z,5.08
2018-12-24T23:22:11.324Z,5.50
2018-12-24T23:27:13.607Z,5.22
2018-12-24T23:32:15.846Z,5.15
2018-12-24T23:37:18.024Z,5.55
2018-12-24T23:42:20.254Z,6.40
2018-12-24T23:47:22.570Z,6.37
2018-12-24T23:52:24.681Z,7.10
2018-12-24T23:57:26.980Z,6.25
